Time;durP1;ratioP1;P1;durP2;ratioP2;P2;SDS_P1;SDS_P2;PMS_P1;PMS_P2;Temp;Humidity;BMP_temperature;BMP_pressure;BME280_temperature;BME280_humidity;BME280_pressure;Samples;Min_cycle;Max_cycle;Signal;HPM_P1;HPM_P2
2023/06/29 00:00:24;;;;;;;36.00;21.20;;;21.30;99.90;;;;;;5051722;28;20231;-76
2023/06/29 00:02:52;;;;;;;36.20;19.98;;;21.10;99.90;;;;;;5069879;28;20270;-77
2023/06/29 00:05:21;;;;;;;35.05;19.73;;;21.10;99.90;;;;;;5069748;28;20207;-77
2023/06/29 00:07:48;;;;;;;34.65;19.25;;;21.20;99.90;;;;;;5051261;28;20204;-76
2023/06/29 00:10:16;;;;;;;40.65;21.15;;;21.10;99.90;;;;;;5051520;28;20247;-76
2023/06/29 00:12:43;;;;;;;33.92;19.27;;;21.10;99.90;;;;;;5051848;28;20212;-75
2023/06/29 00:15:10;;;;;;;32.00;18.48;;;21.10;99.90;;;;;;5051528;28;20312;-78
2023/06/29 00:17:37;;;;;;;30.17;16.83;;;21.00;99.90;;;;;;5069500;28;20688;-77
2023/06/29 00:20:12;;;;;;;35.50;18.77;;;21.10;99.90;;;;;;5051954;28;20217;-78
2023/06/29 00:22:47;;;;;;;35.38;17.23;;;21.10;99.90;;;;;;5051340;28;20261;-76
2023/06/29 00:25:16;;;;;;;32.88;18.63;;;21.10;99.90;;;;;;5044003;28;20718;-76
2023/06/29 00:27:43;;;;;;;32.15;17.13;;;21.10;99.90;;;;;;5051465;28;20209;-76
2023/06/29 00:30:11;;;;;;;31.73;17.08;;;21.10;99.90;;;;;;5050938;28;20222;-76
2023/06/29 00:32:38;;;;;;;32.80;17.58;;;21.10;99.90;;;;;;5050826;28;20208;-76
2023/06/29 00:35:05;;;;;;;32.13;18.25;;;21.10;99.90;;;;;;5042697;28;20745;-76
2023/06/29 00:37:32;;;;;;;32.30;17.83;;;21.00;99.90;;;;;;5050800;28;20209;-78
2023/06/29 00:40:02;;;;;;;30.77;18.00;;;21.10;99.90;;;;;;5051179;28;20223;-78
2023/06/29 00:42:29;;;;;;;30.40;17.73;;;21.10;99.90;;;;;;5068688;28;20588;-76
2023/06/29 00:44:56;;;;;;;32.38;17.90;;;21.10;99.90;;;;;;5051181;28;20303;-76
2023/06/29 00:47:24;;;;;;;32.50;19.40;;;21.10;99.90;;;;;;5050392;28;20710;-78
2023/06/29 00:49:51;;;;;;;34.33;17.75;;;21.10;99.90;;;;;;5068507;28;20205;-76
2023/06/29 00:52:18;;;;;;;33.42;18.27;;;21.10;99.90;;;;;;5050747;28;20329;-76
2023/06/29 00:54:45;;;;;;;32.42;18.33;;;21.10;99.90;;;;;;5053071;28;20278;-77
2023/06/29 00:57:12;;;;;;;39.47;20.58;;;21.00;99.90;;;;;;5047873;28;20232;-75
2023/06/29 00:59:39;;;;;;;37.17;19.75;;;21.00;99.90;;;;;;5055761;28;20601;-76
2023/06/29 01:02:08;;;;;;;33.47;18.70;;;21.10;99.90;;;;;;5072449;28;20347;-75
2023/06/29 01:04:37;;;;;;;30.35;18.02;;;21.00;99.90;;;;;;5050741;28;20212;-77
2023/06/29 01:07:22;;;;;;;37.38;20.75;;;21.10;99.90;;;;;;5050119;28;20687;-77
2023/06/29 01:09:52;;;;;;;33.78;19.35;;;21.10;99.90;;;;;;5050189;28;20220;-75
2023/06/29 01:12:20;;;;;;;35.03;18.73;;;21.00;99.90;;;;;;5068943;28;20200;-76
2023/06/29 01:14:50;;;;;;;31.23;18.73;;;21.10;99.90;;;;;;5050126;28;20259;-76
2023/06/29 01:17:23;;;;;;;33.22;19.23;;;21.10;99.90;;;;;;5050841;28;20204;-76
2023/06/29 01:19:51;;;;;;;38.25;19.70;;;21.00;99.90;;;;;;5050087;28;20284;-77
2023/06/29 01:22:26;;;;;;;33.95;20.13;;;21.00;99.90;;;;;;5050299;28;20757;-77
2023/06/29 01:24:57;;;;;;;33.38;19.88;;;21.00;99.90;;;;;;5049430;28;20207;-77
2023/06/29 01:27:33;;;;;;;34.80;20.05;;;21.00;99.90;;;;;;5050484;28;20208;-76
2023/06/29 01:30:01;;;;;;;31.23;18.60;;;21.00;99.90;;;;;;5049623;28;20771;-77
2023/06/29 01:32:34;;;;;;;34.65;19.10;;;20.90;99.90;;;;;;5050670;28;20295;-76
2023/06/29 01:35:03;;;;;;;31.17;17.70;;;21.00;99.90;;;;;;5041106;28;20212;-75
2023/06/29 01:37:39;;;;;;;32.83;18.58;;;21.00;99.90;;;;;;5068043;28;20204;-76
2023/06/29 01:40:13;;;;;;;30.77;16.83;;;20.90;99.90;;;;;;5050435;28;20269;-77
2023/06/29 01:42:42;;;;;;;31.77;18.13;;;20.90;99.90;;;;;;5050208;28;20238;-76
2023/06/29 01:45:10;;;;;;;31.17;17.27;;;20.90;99.90;;;;;;5049946;28;20231;-77
2023/06/29 01:47:38;;;;;;;31.77;16.50;;;20.90;99.90;;;;;;5049182;28;20212;-76
2023/06/29 01:50:06;;;;;;;27.42;16.08;;;20.80;99.90;;;;;;5049856;28;20215;-77
2023/06/29 01:52:33;;;;;;;27.15;16.25;;;20.80;99.90;;;;;;5050008;28;20220;-76
2023/06/29 01:55:00;;;;;;;28.77;16.42;;;20.80;99.90;;;;;;5049872;28;20219;-77
2023/06/29 01:57:27;;;;;;;25.65;16.30;;;20.80;99.90;;;;;;5050005;28;20208;-75
2023/06/29 01:59:54;;;;;;;27.08;15.60;;;20.80;99.90;;;;;;5049998;28;20224;-77
2023/06/29 02:02:21;;;;;;;28.30;15.52;;;20.80;99.90;;;;;;5065577;28;20594;-76
2023/06/29 02:04:48;;;;;;;28.33;15.48;;;20.80;99.90;;;;;;5049814;28;20216;-79
2023/06/29 02:07:15;;;;;;;27.67;15.95;;;20.70;99.90;;;;;;5049662;28;20690;-77
2023/06/29 02:09:44;;;;;;;27.73;14.98;;;20.60;99.90;;;;;;5049922;28;20213;-76
2023/06/29 02:12:12;;;;;;;27.08;15.20;;;20.60;99.90;;;;;;5040720;28;20633;-76
2023/06/29 02:14:39;;;;;;;25.85;15.00;;;20.70;99.90;;;;;;5067172;28;20211;-77
2023/06/29 02:17:06;;;;;;;25.55;14.80;;;20.60;99.90;;;;;;5049765;28;20204;-77
2023/06/29 02:19:33;;;;;;;24.38;14.50;;;20.70;99.90;;;;;;5049806;28;20208;-76
2023/06/29 02:22:00;;;;;;;27.70;15.30;;;20.80;99.90;;;;;;5049229;28;20675;-76
2023/06/29 02:24:27;;;;;;;25.30;13.25;;;20.70;99.90;;;;;;5049529;28;20212;-77
2023/06/29 02:26:54;;;;;;;25.17;14.27;;;20.80;99.90;;;;;;5049930;28;20213;-78
2023/06/29 02:29:21;;;;;;;25.77;14.93;;;20.80;99.90;;;;;;5049105;28;20196;-76
2023/06/29 02:31:48;;;;;;;22.85;13.88;;;20.80;99.90;;;;;;5049238;28;20601;-77
2023/06/29 02:34:15;;;;;;;23.70;13.93;;;20.80;99.90;;;;;;5049248;28;20744;-77
2023/06/29 02:36:43;;;;;;;26.15;14.48;;;20.80;99.90;;;;;;5048781;28;20626;-76
2023/06/29 02:39:10;;;;;;;25.23;14.77;;;20.90;99.90;;;;;;5057827;28;20307;-78
2023/06/29 02:41:37;;;;;;;27.00;14.10;;;20.80;99.90;;;;;;5049387;28;20679;-78
2023/06/29 02:44:04;;;;;;;24.95;15.23;;;20.80;99.90;;;;;;5048847;28;20232;-76
2023/06/29 02:46:31;;;;;;;26.90;14.40;;;20.80;99.90;;;;;;5048780;28;20231;-77
2023/06/29 02:48:58;;;;;;;27.67;14.75;;;20.90;99.90;;;;;;5049579;28;20220;-76
2023/06/29 02:51:25;;;;;;;22.90;14.23;;;20.80;99.90;;;;;;5067349;28;20216;-76
2023/06/29 02:53:52;;;;;;;26.98;14.52;;;20.80;99.90;;;;;;5066714;28;20200;-76
2023/06/29 02:56:19;;;;;;;25.50;14.85;;;20.80;99.90;;;;;;5048760;28;20250;-77
2023/06/29 02:58:46;;;;;;;23.92;14.10;;;20.70;99.90;;;;;;5049389;28;20247;-75
2023/06/29 03:01:13;;;;;;;24.33;15.00;;;20.60;99.90;;;;;;5053068;28;21244;-77
2023/06/29 03:03:40;;;;;;;27.90;15.07;;;20.60;99.90;;;;;;5052769;28;20292;-77
2023/06/29 03:06:07;;;;;;;28.42;15.35;;;20.60;99.90;;;;;;5059353;28;20636;-76
2023/06/29 03:08:34;;;;;;;26.50;16.02;;;20.60;99.90;;;;;;5053022;28;20725;-76
2023/06/29 03:11:01;;;;;;;27.63;15.50;;;20.60;99.90;;;;;;5051974;28;20767;-77
2023/06/29 03:13:28;;;;;;;28.77;15.70;;;20.60;99.90;;;;;;5052787;28;20270;-76
2023/06/29 03:15:59;;;;;;;25.42;15.32;;;20.60;99.90;;;;;;5052817;28;20233;-77
2023/06/29 03:18:25;;;;;;;28.45;16.00;;;20.50;99.90;;;;;;5070575;28;20219;-77
2023/06/29 03:20:53;;;;;;;28.73;15.80;;;20.50;99.90;;;;;;5052479;28;20290;-78
2023/06/29 03:23:20;;;;;;;28.02;15.68;;;20.50;99.90;;;;;;5052472;28;20232;-77
2023/06/29 03:25:48;;;;;;;31.13;16.17;;;20.50;99.90;;;;;;5052376;28;20216;-79
2023/06/29 03:28:15;;;;;;;26.83;14.80;;;20.60;99.90;;;;;;5052372;28;20201;-76
2023/06/29 03:30:42;;;;;;;27.50;15.32;;;20.50;99.90;;;;;;5069915;28;20224;-77
2023/06/29 03:33:09;;;;;;;28.92;16.35;;;20.50;99.90;;;;;;5052392;28;20200;-77
2023/06/29 03:35:36;;;;;;;27.75;16.20;;;20.50;99.90;;;;;;5052270;28;20209;-76
2023/06/29 03:38:07;;;;;;;28.00;16.30;;;20.50;99.90;;;;;;5051811;28;20211;-76
2023/06/29 03:40:35;;;;;;;29.73;15.73;;;20.50;99.90;;;;;;5052426;28;20223;-77
2023/06/29 03:43:02;;;;;;;28.67;15.77;;;20.50;99.90;;;;;;5051904;28;20224;-79
2023/06/29 03:45:31;;;;;;;28.90;16.15;;;20.60;99.90;;;;;;5052286;28;20266;-77
2023/06/29 03:47:58;;;;;;;30.85;17.55;;;20.60;99.90;;;;;;5069470;28;20262;-76
2023/06/29 03:50:25;;;;;;;28.50;15.90;;;20.60;99.90;;;;;;5052445;28;20192;-78
2023/06/29 03:52:53;;;;;;;32.78;18.38;;;20.60;99.90;;;;;;5052599;28;20228;-76
2023/06/29 03:55:20;;;;;;;31.23;17.13;;;20.70;99.90;;;;;;5070111;28;20219;-77
2023/06/29 03:57:48;;;;;;;30.73;17.25;;;20.70;99.90;;;;;;5051152;28;20255;-77
2023/06/29 04:00:16;;;;;;;33.97;18.25;;;20.70;99.90;;;;;;5051996;28;20235;-77
2023/06/29 04:02:43;;;;;;;34.75;17.92;;;20.70;99.90;;;;;;5051917;28;20603;-76
2023/06/29 04:05:10;;;;;;;31.75;18.30;;;20.70;99.90;;;;;;5051835;28;20575;-76
2023/06/29 04:07:37;;;;;;;30.17;18.45;;;20.80;99.90;;;;;;5051303;28;20208;-79
2023/06/29 04:10:04;;;;;;;36.03;19.33;;;20.80;99.90;;;;;;5051059;28;20208;-76
2023/06/29 04:12:31;;;;;;;35.20;19.20;;;20.80;99.90;;;;;;5051555;28;20432;-77
2023/06/29 04:14:58;;;;;;;32.38;18.50;;;20.80;99.90;;;;;;5067649;28;20311;-76
2023/06/29 04:17:25;;;;;;;35.70;19.98;;;20.70;99.90;;;;;;5051520;28;20311;-76
2023/06/29 04:19:52;;;;;;;32.85;17.00;;;20.80;99.90;;;;;;5051457;28;20204;-76
2023/06/29 04:22:19;;;;;;;32.00;18.17;;;20.80;99.90;;;;;;5051430;28;20216;-76
2023/06/29 04:24:46;;;;;;;32.72;18.52;;;20.70;99.90;;;;;;5051174;28;20311;-76
2023/06/29 04:27:13;;;;;;;34.63;18.33;;;20.80;99.90;;;;;;5050803;28;20211;-76
2023/06/29 04:29:41;;;;;;;31.98;17.90;;;20.80;99.90;;;;;;5067827;28;20212;-76
2023/06/29 04:32:08;;;;;;;36.58;18.05;;;20.80;99.90;;;;;;5051129;28;20686;-76
2023/06/29 04:34:35;;;;;;;29.77;17.63;;;20.80;99.90;;;;;;5051393;28;20221;-76
2023/06/29 04:37:02;;;;;;;32.38;19.08;;;20.80;99.90;;;;;;5050590;28;20243;-77
2023/06/29 04:39:29;;;;;;;33.88;19.33;;;20.80;99.90;;;;;;5050431;28;20286;-76
2023/06/29 04:42:02;;;;;;;35.00;18.75;;;20.90;99.90;;;;;;5051463;28;20212;-76
2023/06/29 04:44:32;;;;;;;36.17;19.80;;;20.90;99.90;;;;;;5050479;28;20284;-77
2023/06/29 04:47:00;;;;;;;33.05;18.80;;;20.90;99.90;;;;;;5051133;28;20288;-76
2023/06/29 04:49:31;;;;;;;36.65;19.83;;;20.90;99.90;;;;;;5050291;28;20212;-76
2023/06/29 04:51:59;;;;;;;36.40;19.95;;;20.90;99.90;;;;;;5051466;28;20253;-77
2023/06/29 04:54:27;;;;;;;36.00;21.02;;;20.90;99.90;;;;;;5051247;28;20258;-76
2023/06/29 04:56:56;;;;;;;38.97;20.20;;;21.00;99.90;;;;;;5050425;28;20219;-78
2023/06/29 04:59:24;;;;;;;43.72;21.55;;;21.00;99.90;;;;;;5050313;28;20251;-76
2023/06/29 05:01:51;;;;;;;42.85;21.75;;;20.90;99.90;;;;;;5050547;28;20217;-77
2023/06/29 05:04:19;;;;;;;41.67;22.00;;;20.90;99.90;;;;;;5068056;28;20561;-78
2023/06/29 05:06:46;;;;;;;42.17;22.95;;;20.90;99.90;;;;;;5050517;28;20210;-78
2023/06/29 05:09:13;;;;;;;42.03;21.98;;;20.90;99.90;;;;;;5042682;28;20217;-77
2023/06/29 05:11:40;;;;;;;43.85;23.05;;;20.90;99.90;;;;;;5050060;28;20244;-77
2023/06/29 05:14:07;;;;;;;37.42;21.17;;;20.90;99.90;;;;;;5067051;28;20216;-77
2023/06/29 05:16:34;;;;;;;45.50;22.13;;;20.90;99.90;;;;;;5050857;28;20303;-79
2023/06/29 05:19:01;;;;;;;39.75;22.35;;;21.00;99.90;;;;;;5050732;28;20210;-77
2023/06/29 05:21:28;;;;;;;45.10;22.73;;;21.00;99.90;;;;;;5049874;28;20207;-76
2023/06/29 05:23:55;;;;;;;36.35;21.30;;;21.00;99.90;;;;;;5049695;28;20381;-76
2023/06/29 05:26:23;;;;;;;43.17;22.58;;;21.00;99.90;;;;;;5049826;28;20397;-77
2023/06/29 05:28:50;;;;;;;41.30;22.20;;;21.10;99.90;;;;;;5067721;28;20212;-77
2023/06/29 05:31:31;;;;;;;42.63;22.75;;;21.00;99.90;;;;;;5052051;28;20220;-76
2023/06/29 05:33:58;;;;;;;38.17;20.95;;;21.20;99.90;;;;;;5049607;28;20724;-78
2023/06/29 05:36:26;;;;;;;42.35;21.65;;;21.10;99.90;;;;;;5042287;28;20213;-77
2023/06/29 05:38:55;;;;;;;40.92;21.90;;;21.20;99.90;;;;;;5050383;28;20208;-76
2023/06/29 05:41:22;;;;;;;43.38;21.88;;;21.20;99.90;;;;;;5050069;28;20197;-77
2023/06/29 05:43:51;;;;;;;37.58;21.67;;;21.30;99.90;;;;;;5049991;28;20217;-76
2023/06/29 05:46:19;;;;;;;39.80;21.92;;;21.20;99.90;;;;;;5049702;28;20691;-77
2023/06/29 05:48:46;;;;;;;39.50;21.35;;;21.30;99.90;;;;;;5048577;28;20370;-76
2023/06/29 05:51:13;;;;;;;41.42;22.30;;;21.30;99.90;;;;;;5049823;28;20204;-76
2023/06/29 05:53:40;;;;;;;38.15;21.45;;;21.40;99.90;;;;;;5049603;28;20660;-76
2023/06/29 05:56:07;;;;;;;36.20;19.77;;;21.30;99.90;;;;;;5049519;28;20218;-77
2023/06/29 05:58:34;;;;;;;45.15;22.42;;;21.30;99.90;;;;;;5038223;28;20201;-78
2023/06/29 06:01:01;;;;;;;39.88;22.50;;;21.40;99.90;;;;;;5034811;28;20240;-77
2023/06/29 06:03:31;;;;;;;41.28;22.80;;;21.40;99.90;;;;;;5042360;28;20225;-76
2023/06/29 06:05:58;;;;;;;38.55;20.98;;;21.50;99.90;;;;;;5043792;28;20201;-76
2023/06/29 06:08:25;;;;;;;40.45;20.58;;;21.60;99.90;;;;;;5048377;28;20667;-77
2023/06/29 06:10:52;;;;;;;38.40;21.65;;;21.60;99.90;;;;;;5049852;28;20623;-76
2023/06/29 06:13:19;;;;;;;39.05;21.17;;;21.70;99.90;;;;;;5049351;28;20567;-76
2023/06/29 06:15:46;;;;;;;41.67;22.58;;;21.70;99.90;;;;;;5047913;28;20228;-77
2023/06/29 06:18:13;;;;;;;36.67;20.73;;;21.80;99.90;;;;;;5041202;28;20311;-78
2023/06/29 06:20:40;;;;;;;35.53;21.08;;;21.90;99.90;;;;;;5067826;28;20201;-77
2023/06/29 06:23:07;;;;;;;35.17;20.88;;;21.90;99.90;;;;;;5048082;28;20287;-76
2023/06/29 06:25:34;;;;;;;38.80;21.02;;;22.00;99.90;;;;;;5049738;28;20216;-76
2023/06/29 06:28:01;;;;;;;37.17;19.27;;;22.10;99.90;;;;;;5049422;28;20217;-76
2023/06/29 06:30:28;;;;;;;38.00;20.50;;;22.20;99.90;;;;;;5049432;28;20865;-77
2023/06/29 06:32:55;;;;;;;35.90;19.73;;;22.30;99.90;;;;;;5045516;28;20658;-77
2023/06/29 06:35:22;;;;;;;34.25;19.75;;;22.30;99.90;;;;;;5046799;28;20250;-76
2023/06/29 06:37:49;;;;;;;33.58;18.92;;;22.40;99.90;;;;;;5053613;28;20573;-76
2023/06/29 06:40:16;;;;;;;37.92;19.05;;;22.50;99.90;;;;;;5052963;28;20216;-76
2023/06/29 06:42:42;;;;;;;32.50;18.58;;;22.70;99.90;;;;;;5061771;28;20287;-78
2023/06/29 06:45:10;;;;;;;33.83;19.27;;;22.80;99.90;;;;;;5070896;28;20303;-78
2023/06/29 06:47:37;;;;;;;37.47;19.10;;;22.90;99.90;;;;;;5070416;28;20208;-76
2023/06/29 06:50:05;;;;;;;32.28;17.92;;;23.00;99.90;;;;;;5071146;28;20222;-75
2023/06/29 06:52:32;;;;;;;29.15;17.35;;;23.10;99.90;;;;;;5071409;28;20205;-76
2023/06/29 06:54:59;;;;;;;36.78;18.50;;;23.10;99.90;;;;;;5070627;28;20566;-77
2023/06/29 06:57:26;;;;;;;34.20;18.33;;;23.10;99.90;;;;;;5053457;28;20212;-76
2023/06/29 06:59:53;;;;;;;33.25;17.08;;;23.20;99.90;;;;;;5052943;28;20231;-75
2023/06/29 07:02:21;;;;;;;29.05;17.25;;;23.30;99.90;;;;;;5052270;28;20247;-77
2023/06/29 07:04:48;;;;;;;32.28;17.13;;;23.30;99.90;;;;;;5053111;28;20236;-77
2023/06/29 07:07:15;;;;;;;33.47;17.33;;;23.30;99.90;;;;;;5052924;28;20649;-77
2023/06/29 07:09:43;;;;;;;31.38;16.90;;;23.20;99.90;;;;;;5053028;28;20261;-77
2023/06/29 07:12:10;;;;;;;32.55;17.67;;;23.20;99.90;;;;;;5052610;28;20672;-78
2023/06/29 07:14:37;;;;;;;29.63;16.90;;;23.10;99.90;;;;;;5052450;28;20308;-76
2023/06/29 07:17:05;;;;;;;31.08;16.65;;;23.10;99.90;;;;;;5053085;28;20217;-76
2023/06/29 07:19:32;;;;;;;34.72;17.02;;;23.00;99.90;;;;;;5055423;28;20223;-78
2023/06/29 07:22:01;;;;;;;31.02;17.17;;;22.90;99.90;;;;;;5058241;28;20227;-76
2023/06/29 07:24:31;;;;;;;35.42;18.95;;;22.90;99.90;;;;;;5064287;28;20232;-77
2023/06/29 07:26:58;;;;;;;32.92;17.55;;;22.90;99.90;;;;;;5060298;28;20222;-76
2023/06/29 07:29:26;;;;;;;29.42;17.08;;;22.90;99.90;;;;;;5058853;28;20207;-76
2023/06/29 07:31:53;;;;;;;31.50;17.73;;;23.00;99.90;;;;;;5054082;28;20228;-76
2023/06/29 07:34:23;;;;;;;34.55;17.20;;;23.00;99.90;;;;;;5053227;28;20675;-77
2023/06/29 07:36:50;;;;;;;31.83;16.85;;;23.10;99.90;;;;;;5053302;28;20217;-76
2023/06/29 07:39:17;;;;;;;34.70;17.52;;;23.20;99.90;;;;;;5052920;28;20212;-77
2023/06/29 07:41:44;;;;;;;28.05;16.48;;;23.20;99.90;;;;;;5052842;28;20213;-76
2023/06/29 07:44:11;;;;;;;29.50;17.00;;;23.40;99.90;;;;;;5044707;28;20247;-77
2023/06/29 07:46:38;;;;;;;31.33;16.70;;;23.40;99.90;;;;;;5052025;28;20351;-76
2023/06/29 07:49:05;;;;;;;32.08;17.15;;;23.50;99.90;;;;;;5052042;28;20695;-78
2023/06/29 07:51:33;;;;;;;31.40;16.80;;;23.60;99.90;;;;;;5052418;28;20216;-76
2023/06/29 07:54:02;;;;;;;30.02;16.15;;;23.70;99.90;;;;;;5052462;28;20644;-77
2023/06/29 07:56:33;;;;;;;28.92;17.13;;;23.60;99.90;;;;;;5052459;28;20220;-76
2023/06/29 07:59:03;;;;;;;25.70;15.25;;;23.60;99.90;;;;;;5052515;28;20212;-76
2023/06/29 08:01:30;;;;;;;29.75;15.43;;;23.60;99.90;;;;;;5052317;28;20295;-76
2023/06/29 08:03:57;;;;;;;29.98;15.77;;;23.60;99.90;;;;;;5051582;28;20713;-76
2023/06/29 08:06:31;;;;;;;25.60;14.13;;;23.80;99.90;;;;;;5052862;28;20204;-78
2023/06/29 08:09:01;;;;;;;26.65;14.95;;;23.90;99.90;;;;;;5060993;28;20682;-77
2023/06/29 08:11:28;;;;;;;30.83;14.35;;;24.10;99.90;;;;;;5051881;28;20696;-76
2023/06/29 08:13:56;;;;;;;26.50;15.02;;;23.90;99.90;;;;;;5051987;28;20215;-77
2023/06/29 08:16:23;;;;;;;27.40;16.65;;;23.90;99.90;;;;;;5051872;28;20671;-76
2023/06/29 08:18:50;;;;;;;29.95;15.65;;;24.00;99.90;;;;;;5050604;28;20579;-78
2023/06/29 08:21:17;;;;;;;28.55;15.43;;;24.10;99.90;;;;;;5051907;28;20224;-76
2023/06/29 08:23:46;;;;;;;26.05;15.55;;;23.90;99.90;;;;;;5051902;28;20307;-77
2023/06/29 08:26:13;;;;;;;26.98;14.98;;;23.80;99.90;;;;;;5043470;28;20227;-76
2023/06/29 08:28:41;;;;;;;27.17;15.25;;;23.70;99.90;;;;;;5052109;28;20228;-77
2023/06/29 08:31:08;;;;;;;28.50;15.32;;;23.50;99.90;;;;;;5051718;28;20676;-77
2023/06/29 08:33:35;;;;;;;27.35;14.30;;;23.40;99.90;;;;;;5051540;28;20209;-77
2023/06/29 08:36:02;;;;;;;28.42;14.75;;;23.40;99.90;;;;;;5051156;28;20211;-77
2023/06/29 08:38:29;;;;;;;29.20;14.25;;;23.40;99.90;;;;;;5051338;28;20223;-76
2023/06/29 08:40:58;;;;;;;23.90;13.90;;;23.50;99.90;;;;;;5051247;28;20263;-76
2023/06/29 08:43:26;;;;;;;25.40;15.23;;;23.60;99.90;;;;;;5050847;28;20664;-76
2023/06/29 08:45:53;;;;;;;24.55;14.23;;;23.70;99.90;;;;;;5051097;28;20233;-76
2023/06/29 08:48:22;;;;;;;29.25;15.27;;;24.00;99.90;;;;;;5050936;28;20672;-79
2023/06/29 08:50:55;;;;;;;26.65;14.73;;;24.30;99.90;;;;;;5051431;28;20212;-77
2023/06/29 08:53:22;;;;;;;24.40;13.27;;;24.30;99.90;;;;;;5051035;28;20294;-77
2023/06/29 08:55:50;;;;;;;23.90;14.40;;;24.50;99.90;;;;;;5050687;28;20211;-78
2023/06/29 08:58:20;;;;;;;24.13;13.50;;;24.60;99.90;;;;;;5050265;28;20254;-77
2023/06/29 09:00:47;;;;;;;22.65;12.70;;;24.80;99.90;;;;;;5050783;28;20232;-75
2023/06/29 09:03:14;;;;;;;23.65;13.85;;;24.90;99.90;;;;;;5050937;28;20206;-77
2023/06/29 09:05:45;;;;;;;23.90;14.55;;;25.00;99.90;;;;;;5054994;28;20251;-77
2023/06/29 09:08:12;;;;;;;23.33;13.55;;;24.90;99.90;;;;;;5050791;28;20645;-77
2023/06/29 09:10:46;;;;;;;21.95;13.15;;;25.10;99.90;;;;;;5050192;28;20240;-77
2023/06/29 09:13:13;;;;;;;22.48;13.40;;;25.10;99.90;;;;;;5042324;28;20208;-78
2023/06/29 09:15:41;;;;;;;22.42;14.20;;;25.20;99.90;;;;;;5050507;28;20315;-77
2023/06/29 09:18:10;;;;;;;23.00;13.10;;;25.30;99.90;;;;;;5050480;28;20687;-77
2023/06/29 09:20:37;;;;;;;22.20;13.27;;;25.50;99.90;;;;;;5050154;28;20357;-77
2023/06/29 09:23:04;;;;;;;20.45;12.68;;;25.70;99.90;;;;;;5050406;28;20212;-78
2023/06/29 09:25:39;;;;;;;23.45;11.88;;;25.90;99.90;;;;;;5050075;28;20252;-78
2023/06/29 09:28:07;;;;;;;21.55;12.48;;;26.20;99.90;;;;;;5050383;28;20262;-77
2023/06/29 09:30:37;;;;;;;23.02;12.65;;;26.40;99.90;;;;;;5049962;28;20322;-77
2023/06/29 09:33:08;;;;;;;21.15;12.07;;;26.50;99.90;;;;;;5050196;28;20209;-77
2023/06/29 09:35:38;;;;;;;21.50;12.55;;;26.70;99.90;;;;;;5050278;28;20741;-76
2023/06/29 09:38:07;;;;;;;19.33;11.50;;;26.70;99.90;;;;;;5050169;28;20231;-76
2023/06/29 09:40:50;;;;;;;18.92;12.35;;;26.80;99.90;;;;;;5050725;28;20227;-78
2023/06/29 09:43:19;;;;;;;23.10;12.95;;;26.80;99.90;;;;;;5059652;28;20607;-76
2023/06/29 09:45:47;;;;;;;22.40;12.88;;;26.80;99.90;;;;;;5057849;28;20240;-76
2023/06/29 09:48:14;;;;;;;21.15;12.85;;;26.90;99.90;;;;;;5042015;28;20240;-77
2023/06/29 09:50:49;;;;;;;21.27;12.63;;;27.00;99.90;;;;;;5050311;28;20209;-77
2023/06/29 09:53:33;;;;;;;20.52;12.15;;;27.30;99.90;;;;;;5058962;28;20218;-76
2023/06/29 09:56:01;;;;;;;22.02;12.45;;;27.40;99.90;;;;;;5049867;28;20723;-76
2023/06/29 09:58:30;;;;;;;22.52;12.57;;;27.60;99.90;;;;;;5050023;28;20251;-77
2023/06/29 10:01:00;;;;;;;19.30;12.27;;;27.70;99.90;;;;;;5049324;28;20232;-77
2023/06/29 10:03:27;;;;;;;20.20;13.00;;;27.90;99.90;;;;;;5049271;28;20204;-76
2023/06/29 10:06:15;;;;;;;23.70;13.27;;;27.90;99.90;;;;;;5054598;28;20353;-79
2023/06/29 10:08:53;;;;;;;20.30;12.57;;;27.70;99.90;;;;;;5050044;28;20303;-77
2023/06/29 10:11:28;;;;;;;18.95;11.30;;;27.70;99.90;;;;;;5049314;28;20236;-78
2023/06/29 10:14:00;;;;;;;19.88;12.02;;;27.40;99.90;;;;;;5049224;28;20539;-77
2023/06/29 10:16:32;;;;;;;21.13;11.80;;;27.00;99.90;;;;;;5049775;28;20267;-76
2023/06/29 10:19:20;;;;;;;20.55;11.98;;;27.00;99.90;;;;;;5049408;28;20490;-77
2023/06/29 10:21:52;;;;;;;18.60;11.07;;;27.30;99.90;;;;;;5049323;28;20208;-76
2023/06/29 10:24:25;;;;;;;18.60;10.27;;;27.40;99.90;;;;;;5049740;28;20281;-77
2023/06/29 10:26:52;;;;;;;19.05;11.00;;;27.50;99.90;;;;;;5050231;28;20204;-76
2023/06/29 10:29:19;;;;;;;18.98;10.63;;;27.60;99.90;;;;;;5051516;28;20327;-76
2023/06/29 10:32:02;;;;;;;21.75;11.25;;;27.60;99.90;;;;;;5051626;28;20228;-77
2023/06/29 10:34:29;;;;;;;18.70;10.93;;;27.50;99.90;;;;;;5049587;28;20567;-78
2023/06/29 10:36:59;;;;;;;19.65;11.95;;;27.40;99.90;;;;;;5050051;28;20239;-77
2023/06/29 10:39:39;;;;;;;21.55;12.52;;;27.30;99.90;;;;;;5067469;28;20741;-76
2023/06/29 10:42:22;;;;;;;17.23;10.88;;;27.00;99.90;;;;;;5042133;28;20704;-76
2023/06/29 10:44:50;;;;;;;22.55;12.18;;;27.20;99.90;;;;;;5057314;28;20247;-78
2023/06/29 10:47:27;;;;;;;20.20;11.35;;;27.40;99.90;;;;;;5049407;28;20346;-77
2023/06/29 10:50:18;;;;;;;17.00;11.10;;;27.60;99.90;;;;;;5049629;28;20730;-78
2023/06/29 10:52:48;;;;;;;19.13;10.55;;;27.70;99.90;;;;;;5057452;28;20219;-78
2023/06/29 10:55:20;;;;;;;18.80;11.68;;;27.90;99.90;;;;;;5041737;28;20216;-78
2023/06/29 10:57:55;;;;;;;19.02;12.55;;;27.90;99.90;;;;;;5067038;28;20235;-76
2023/06/29 11:00:24;;;;;;;18.15;11.13;;;27.70;99.90;;;;;;5049004;28;20231;-77
2023/06/29 11:02:53;;;;;;;20.15;12.38;;;27.80;99.90;;;;;;5048795;28;20750;-76
2023/06/29 11:05:21;;;;;;;21.20;11.88;;;27.80;99.90;;;;;;5048403;28;20643;-76
2023/06/29 11:07:52;;;;;;;20.48;12.45;;;27.80;99.90;;;;;;5048864;28;20223;-79
2023/06/29 11:10:23;;;;;;;20.00;11.68;;;27.90;99.90;;;;;;5048358;28;20236;-77
2023/06/29 11:12:51;;;;;;;18.58;11.25;;;27.90;99.90;;;;;;5048811;28;20549;-77
2023/06/29 11:15:19;;;;;;;18.35;10.85;;;27.80;99.90;;;;;;5048838;28;20307;-77
2023/06/29 11:17:51;;;;;;;22.02;12.15;;;27.70;99.90;;;;;;5049117;28;20220;-76
2023/06/29 11:20:20;;;;;;;19.42;11.45;;;27.70;99.90;;;;;;5049482;28;20219;-80
2023/06/29 11:22:51;;;;;;;19.73;11.18;;;27.60;99.90;;;;;;5052696;28;20252;-77
2023/06/29 11:25:18;;;;;;;19.05;11.77;;;27.70;99.90;;;;;;5070777;28;20260;-77
2023/06/29 11:27:49;;;;;;;18.35;11.02;;;27.80;99.90;;;;;;5052680;28;20755;-76
2023/06/29 11:30:21;;;;;;;18.00;10.90;;;27.90;99.90;;;;;;5053109;28;20228;-78
2023/06/29 11:32:50;;;;;;;18.95;11.48;;;28.00;99.90;;;;;;5051815;28;20235;-76
2023/06/29 11:35:22;;;;;;;19.38;11.18;;;28.10;99.90;;;;;;5052525;28;20211;-79
2023/06/29 11:38:05;;;;;;;19.58;10.68;;;28.10;99.90;;;;;;5052818;28;20269;-76
2023/06/29 11:40:33;;;;;;;16.42;9.82;;;28.20;99.90;;;;;;5051871;28;20212;-77
2023/06/29 11:43:01;;;;;;;19.00;11.05;;;28.30;99.90;;;;;;5052114;28;20278;-80
2023/06/29 11:45:28;;;;;;;18.73;11.27;;;28.30;99.90;;;;;;5052061;28;20719;-77
2023/06/29 11:47:56;;;;;;;17.88;10.88;;;28.20;99.90;;;;;;5052553;28;20209;-79
2023/06/29 11:50:23;;;;;;;19.00;11.13;;;28.20;99.90;;;;;;5052332;28;20216;-76
2023/06/29 11:52:51;;;;;;;18.17;11.35;;;28.10;99.90;;;;;;5051669;28;20212;-78
2023/06/29 11:55:18;;;;;;;18.17;11.23;;;27.80;99.90;;;;;;5052046;28;20227;-77
2023/06/29 11:57:51;;;;;;;18.33;11.45;;;27.80;99.90;;;;;;5052791;28;20208;-77
2023/06/29 12:00:18;;;;;;;18.45;11.18;;;27.70;99.90;;;;;;5052171;28;20319;-77
2023/06/29 12:02:45;;;;;;;19.65;12.15;;;27.60;99.90;;;;;;5051553;28;20209;-76
2023/06/29 12:05:12;;;;;;;21.38;11.68;;;27.60;99.90;;;;;;5043608;28;20290;-77
2023/06/29 12:07:46;;;;;;;22.48;13.20;;;27.70;99.90;;;;;;5051942;28;20219;-76
2023/06/29 12:10:20;;;;;;;18.92;11.70;;;27.90;99.90;;;;;;5043614;28;20208;-77
2023/06/29 12:12:55;;;;;;;23.15;13.68;;;28.00;99.90;;;;;;5051218;28;20224;-76
2023/06/29 12:15:25;;;;;;;22.15;13.43;;;28.00;99.90;;;;;;5051716;28;20285;-77
2023/06/29 12:17:58;;;;;;;24.25;14.57;;;27.90;99.90;;;;;;5051820;28;20209;-77
2023/06/29 12:20:28;;;;;;;26.67;14.35;;;27.80;99.90;;;;;;5053686;28;20215;-77
2023/06/29 12:22:55;;;;;;;23.02;13.68;;;27.70;99.90;;;;;;5069689;28;20231;-76
2023/06/29 12:25:22;;;;;;;24.00;14.73;;;27.70;99.90;;;;;;5051381;28;20335;-76
2023/06/29 12:27:50;;;;;;;26.42;14.77;;;27.70;99.90;;;;;;5051598;28;20216;-77
2023/06/29 12:30:20;;;;;;;25.20;13.60;;;27.80;99.90;;;;;;5052127;28;20243;-78
2023/06/29 12:32:49;;;;;;;24.55;14.25;;;27.80;99.90;;;;;;5050677;28;20288;-76
2023/06/29 12:35:18;;;;;;;24.23;14.10;;;27.90;99.90;;;;;;5051253;28;20212;-76